Gulf Breeze, FL (32561)

10:58 AM CST on February 06, 2016 (GMT -0600)
Woodlawn Beach Middle School WeatherSTEM | | Change Station
CLOSE
Current Station
Personal Weather Station
Location: Gulf Breeze, FL
Elevation: 42 ft
Nearby Weather Stations

Elev 42 ft 30.39 °N, 87.01 °W | Updated 4 minutes ago

Clear
Clear
51.2 °F
Feels Like 51.2 °F
N
6.0
Wind Variable Wind from NNW
Gusts 9.0 mph

Today
High -- | Low -- °F
--% Chance of Precip.
Yesterday
High -- | Low -- °F
Precip. -- in
Pressure 30.34 in
Visibility 10.0 miles
Clouds Clear
Dew Point 28 °F
Humidity 41%
Rainfall 0.00 in
Snow Depth Not available.
6:35 AM 5:28 PM
Waning Crescent, 5% visible
METAR KPNS 061653Z 01007KT 10SM CLR 12/M06 A3033 RMK AO2 SLP274 T01221056
Pressure 30.34 in
Visibility 10.0 miles
Clouds Clear
Dew Point 28 °F
Humidity 41%
Rainfall 0.00 in
Snow Depth Not available.
6:35 AM 5:28 PM
Waning Crescent, 5% visible
METAR KPNS 061653Z 01007KT 10SM CLR 12/M06 A3033 RMK AO2 SLP274 T01221056

10-Day Weather Forecast

Almanac

Astronomy

Feb. 06, 2016 Rise Set
Actual Time
Civil Twilight
Nautical Twilight
Astronomical Twilight
Moon
Length of Visible Light
Length of Day
Tomorrow will be .
, % of the Moon is Illuminated

Today's Extremes

State Highs State Lows

Community

WunderPhotos

Upload Photos

1,891,017 photos uploaded!

WunderBlog® & News

Nearby

Air Quality

  Air Quality AQ Index Pollutant
Not available.

Snow Depth

Station Depth Elevation

Earthquake Activity

City Distance Mag. Time & Date
Minimum magnitude displayed is 2.5.

Coastal Water Temperatures

Place Temperature

Stations

Nearby Weather Stations

Station Location Temp. Windchill Dew Point Humidity Wind Precip. Elev Updated Type
                   

Watches & Warnings

There are currently no watches in effect.